createdAt,value
2023-01-01T00:00:11.911Z,94.20
2023-01-01T00:00:43.860Z,94.20
2023-01-01T00:01:18.922Z,94.20
2023-01-01T00:01:50.749Z,94.20
2023-01-01T00:02:23.586Z,94.10
2023-01-01T00:02:56.348Z,94.20
2023-01-01T00:03:29.105Z,94.20
2023-01-01T00:04:01.157Z,94.20
2023-01-01T00:04:34.472Z,94.30
2023-01-01T00:05:07.182Z,94.30
2023-01-01T00:05:39.137Z,94.20
2023-01-01T00:06:13.929Z,94.30
2023-01-01T00:06:46.097Z,94.30
2023-01-01T00:07:17.963Z,94.40
2023-01-01T00:07:50.713Z,94.40
2023-01-01T00:08:22.547Z,94.40
2023-01-01T00:09:09.222Z,94.40
2023-01-01T00:10:00.822Z,94.30
2023-01-01T00:10:33.662Z,94.00
2023-01-01T00:11:07.063Z,94.00
2023-01-01T00:11:38.868Z,94.00
2023-01-01T00:12:11.666Z,94.00
2023-01-01T00:12:43.434Z,94.00
2023-01-01T00:13:16.292Z,94.00
2023-01-01T00:13:50.150Z,94.10
2023-01-01T00:14:22.134Z,94.10
2023-01-01T00:14:54.905Z,94.00
2023-01-01T00:15:28.138Z,94.00
2023-01-01T00:16:05.915Z,94.00
2023-01-01T00:16:37.812Z,94.00
2023-01-01T00:17:10.909Z,94.00
2023-01-01T00:17:42.689Z,94.10
2023-01-01T00:18:15.476Z,94.00
2023-01-01T00:18:47.245Z,94.00
2023-01-01T00:19:20.000Z,93.90
2023-01-01T00:19:51.805Z,93.80
2023-01-01T00:20:26.649Z,93.70
2023-01-01T00:21:03.134Z,93.40
2023-01-01T00:21:35.931Z,93.00
2023-01-01T00:22:43.798Z,92.90
2023-01-01T00:23:00.426Z,92.70
2023-01-01T00:23:32.619Z,92.50
2023-01-01T00:24:05.134Z,92.50
2023-01-01T00:24:37.907Z,92.60
2023-01-01T00:25:13.958Z,92.60
2023-01-01T00:25:45.759Z,92.80
2023-01-01T00:26:19.372Z,92.90
2023-01-01T00:26:51.164Z,93.00
2023-01-01T00:27:22.959Z,93.00
2023-01-01T00:27:55.769Z,93.10
2023-01-01T00:28:27.855Z,93.10
2023-01-01T00:29:01.158Z,93.30
2023-01-01T00:29:33.102Z,93.30
2023-01-01T00:30:06.863Z,93.30
2023-01-01T00:30:41.692Z,93.30
2023-01-01T00:31:23.823Z,93.40
2023-01-01T00:31:55.716Z,93.50
2023-01-01T00:32:27.607Z,93.60
2023-01-01T00:33:00.668Z,93.60
2023-01-01T00:33:32.460Z,93.60
2023-01-01T00:34:05.241Z,93.70
2023-01-01T00:34:37.050Z,93.80
2023-01-01T00:35:09.794Z,93.90
2023-01-01T00:35:42.582Z,94.00
2023-01-01T00:36:16.054Z,94.10
2023-01-01T00:36:48.844Z,94.30
2023-01-01T00:37:20.658Z,94.40
2023-01-01T00:37:53.162Z,94.40
2023-01-01T00:38:25.893Z,94.40
2023-01-01T00:38:57.735Z,94.40
2023-01-01T00:39:30.530Z,94.40
2023-01-01T00:40:02.326Z,94.40
2023-01-01T00:40:36.475Z,94.30
2023-01-01T00:41:08.519Z,94.30
2023-01-01T00:41:41.316Z,94.30
2023-01-01T00:42:13.105Z,94.40
2023-01-01T00:42:44.937Z,94.30
2023-01-01T00:43:17.681Z,94.40
2023-01-01T00:43:49.536Z,94.50
2023-01-01T00:44:21.384Z,94.50
2023-01-01T00:44:54.183Z,94.50
2023-01-01T00:45:26.038Z,94.50
2023-01-01T00:45:58.128Z,94.50
2023-01-01T00:46:30.973Z,94.50
2023-01-01T00:47:02.901Z,94.50
2023-01-01T00:47:34.825Z,94.50
2023-01-01T00:48:07.944Z,94.50
2023-01-01T00:48:40.131Z,94.50
2023-01-01T00:49:12.940Z,94.50
2023-01-01T00:49:44.755Z,94.50
2023-01-01T00:50:16.641Z,94.60
2023-01-01T00:50:49.653Z,94.50
2023-01-01T00:51:21.496Z,94.50
2023-01-01T00:51:53.277Z,94.60
2023-01-01T00:52:26.106Z,94.60
2023-01-01T00:52:57.955Z,94.60
2023-01-01T00:53:29.887Z,94.60
2023-01-01T00:54:02.607Z,94.60
2023-01-01T00:54:34.415Z,94.60
2023-01-01T00:55:07.123Z,94.60
2023-01-01T00:55:42.457Z,94.60
2023-01-01T00:56:14.302Z,94.60
2023-01-01T00:56:46.120Z,94.50
2023-01-01T00:57:18.901Z,94.40
2023-01-01T00:57:50.733Z,94.20
2023-01-01T00:58:24.615Z,94.00
2023-01-01T00:59:01.220Z,93.90
2023-01-01T00:59:33.855Z,93.90
2023-01-01T01:00:08.059Z,93.90
2023-01-01T01:00:39.897Z,93.80
2023-01-01T01:01:11.830Z,93.80
2023-01-01T01:01:44.801Z,93.90
2023-01-01T01:02:16.935Z,93.60
2023-01-01T01:02:48.866Z,93.50
2023-01-01T01:03:31.021Z,93.40
2023-01-01T01:04:02.974Z,93.40
2023-01-01T01:04:34.763Z,93.30
2023-01-01T01:05:08.787Z,93.10
2023-01-01T01:05:40.588Z,93.10
2023-01-01T01:06:15.024Z,92.80
2023-01-01T01:06:47.809Z,92.60
2023-01-01T01:07:19.637Z,92.50
2023-01-01T01:07:51.423Z,92.60
2023-01-01T01:08:30.491Z,92.60
2023-01-01T01:09:03.396Z,92.60
2023-01-01T01:09:36.156Z,92.50
2023-01-01T01:10:09.474Z,92.60
2023-01-01T01:10:42.674Z,92.60
2023-01-01T01:11:16.867Z,92.60
2023-01-01T01:11:48.738Z,92.60
2023-01-01T01:12:20.540Z,92.50
2023-01-01T01:12:54.024Z,92.40
2023-01-01T01:13:26.159Z,92.30
2023-01-01T01:13:57.982Z,92.20
2023-01-01T01:14:30.774Z,92.00
2023-01-01T01:15:03.093Z,91.90
2023-01-01T01:15:34.898Z,91.90
2023-01-01T01:17:29.562Z,91.80
2023-01-01T01:18:01.452Z,91.80
2023-01-01T01:18:33.301Z,91.80
2023-01-01T01:19:07.230Z,91.60
2023-01-01T01:19:39.126Z,91.30
2023-01-01T01:20:11.645Z,91.30
2023-01-01T01:20:51.750Z,91.20
2023-01-01T01:21:24.425Z,90.80
2023-01-01T01:21:57.281Z,90.60
2023-01-01T01:22:29.421Z,90.50
2023-01-01T01:23:01.400Z,90.40
2023-01-01T01:23:35.193Z,90.30
2023-01-01T01:24:07.770Z,90.20
2023-01-01T01:24:39.658Z,90.10
2023-01-01T01:25:12.594Z,89.90
2023-01-01T01:25:46.141Z,89.60
2023-01-01T01:26:20.541Z,89.20
2023-01-01T01:26:54.290Z,88.90
2023-01-01T01:27:26.235Z,88.70
2023-01-01T01:27:58.053Z,88.60
2023-01-01T01:28:31.026Z,88.50
2023-01-01T01:29:03.427Z,88.30
2023-01-01T01:29:35.274Z,88.20
2023-01-01T01:30:09.571Z,88.00
2023-01-01T01:30:41.765Z,87.80
2023-01-01T01:31:13.866Z,87.80
2023-01-01T01:31:46.816Z,87.80
2023-01-01T01:32:18.902Z,87.60
2023-01-01T01:32:50.731Z,87.30
2023-01-01T01:33:23.587Z,87.30
2023-01-01T01:33:55.831Z,87.20
2023-01-01T01:34:28.490Z,87.20
2023-01-01T01:35:01.434Z,87.30
2023-01-01T01:35:33.449Z,87.40
2023-01-01T01:36:06.365Z,87.50
2023-01-01T01:36:39.173Z,87.50
2023-01-01T01:37:11.918Z,87.60
2023-01-01T01:37:43.726Z,87.40
2023-01-01T01:38:16.487Z,87.20
2023-01-01T01:38:48.318Z,87.00
2023-01-01T01:39:21.222Z,87.00
2023-01-01T01:39:54.142Z,87.10
2023-01-01T01:40:27.343Z,87.10
2023-01-01T01:41:00.521Z,87.20
2023-01-01T01:41:33.310Z,87.50
2023-01-01T01:42:05.732Z,87.30
2023-01-01T01:42:37.599Z,87.20
2023-01-01T01:43:19.361Z,87.30
2023-01-01T01:43:55.144Z,86.90
2023-01-01T01:44:51.917Z,86.70
2023-01-01T01:45:28.341Z,86.50
2023-01-01T01:46:11.479Z,86.40
2023-01-01T01:46:45.319Z,86.50
2023-01-01T01:47:20.614Z,86.60
2023-01-01T01:47:56.185Z,86.80
2023-01-01T01:48:28.899Z,86.80
2023-01-01T01:49:05.966Z,86.80
2023-01-01T01:49:37.872Z,86.90
2023-01-01T01:50:13.749Z,86.90
2023-01-01T01:50:49.977Z,87.10
2023-01-01T01:51:26.494Z,87.10
2023-01-01T01:52:00.645Z,87.20
2023-01-01T01:52:35.690Z,87.20
2023-01-01T01:53:12.626Z,87.20
2023-01-01T01:53:49.419Z,86.90
2023-01-01T01:54:28.250Z,87.00
2023-01-01T01:55:02.107Z,86.90
2023-01-01T01:55:37.808Z,86.90
2023-01-01T01:56:14.566Z,87.00
2023-01-01T01:56:50.985Z,86.80
2023-01-01T01:57:24.108Z,86.70
2023-01-01T01:57:56.100Z,86.80
2023-01-01T01:58:31.008Z,86.80
2023-01-01T01:59:03.195Z,87.50
2023-01-01T01:59:38.428Z,86.80
2023-01-01T02:00:12.658Z,86.60
2023-01-01T02:00:44.521Z,86.50
2023-01-01T02:01:16.419Z,86.40
2023-01-01T02:01:49.360Z,86.30
2023-01-01T02:02:30.098Z,86.40
2023-01-01T02:03:06.332Z,86.50
2023-01-01T02:03:43.521Z,86.50
2023-01-01T02:04:16.825Z,86.60
2023-01-01T02:04:49.172Z,86.70
2023-01-01T02:05:23.589Z,86.80
2023-01-01T02:05:55.683Z,86.80
2023-01-01T02:06:29.007Z,86.90
2023-01-01T02:07:02.098Z,86.90
2023-01-01T02:07:37.770Z,87.00
2023-01-01T02:08:12.064Z,87.10
2023-01-01T02:08:45.131Z,87.20
2023-01-01T02:09:17.453Z,87.30
2023-01-01T02:09:49.612Z,87.10
2023-01-01T02:10:22.741Z,87.00
2023-01-01T02:10:54.620Z,87.10
2023-01-01T02:11:27.759Z,87.10
2023-01-01T02:12:00.771Z,87.00
2023-01-01T02:12:32.809Z,86.70
2023-01-01T02:13:04.645Z,86.60
2023-01-01T02:13:38.860Z,86.40
2023-01-01T02:14:10.815Z,86.20
2023-01-01T02:14:42.757Z,86.20
2023-01-01T02:15:16.125Z,86.10
2023-01-01T02:15:52.997Z,86.20
2023-01-01T02:16:32.938Z,86.40
2023-01-01T02:17:10.771Z,86.40
2023-01-01T02:17:53.607Z,86.60
2023-01-01T02:18:30.712Z,86.60
2023-01-01T02:19:11.581Z,86.50
2023-01-01T02:19:53.465Z,86.40
2023-01-01T02:20:35.128Z,86.40
2023-01-01T02:21:10.567Z,86.50
2023-01-01T02:21:57.360Z,86.50
2023-01-01T02:22:34.313Z,86.60
2023-01-01T02:23:42.559Z,86.50
2023-01-01T02:24:36.726Z,86.50
2023-01-01T02:25:17.033Z,86.40
2023-01-01T02:26:00.474Z,86.40
2023-01-01T02:26:45.918Z,86.30
2023-01-01T02:27:24.661Z,86.40
2023-01-01T02:28:07.180Z,86.40
2023-01-01T02:28:55.539Z,86.40
2023-01-01T02:29:37.956Z,86.20
2023-01-01T02:30:12.922Z,86.10
2023-01-01T02:30:46.834Z,86.30
2023-01-01T02:31:24.432Z,86.60
2023-01-01T02:32:01.777Z,86.80
2023-01-01T02:32:38.090Z,86.70
2023-01-01T02:33:17.078Z,86.70
2023-01-01T02:33:51.666Z,86.60
2023-01-01T02:34:27.067Z,86.50
2023-01-01T02:35:23.764Z,86.30
2023-01-01T02:35:59.503Z,86.10
2023-01-01T02:36:36.532Z,85.90
2023-01-01T02:37:12.568Z,85.80
2023-01-01T02:37:44.719Z,85.70
2023-01-01T02:38:19.983Z,85.70
2023-01-01T02:38:56.034Z,85.50
2023-01-01T02:39:32.083Z,85.60
2023-01-01T02:40:05.725Z,85.60
2023-01-01T02:40:42.603Z,85.70
2023-01-01T02:41:19.828Z,85.90
2023-01-01T02:41:55.206Z,86.00
2023-01-01T02:42:29.050Z,86.00
2023-01-01T02:43:01.678Z,85.90
2023-01-01T02:43:34.523Z,85.80
2023-01-01T02:44:07.866Z,85.80
2023-01-01T02:44:42.622Z,85.90
2023-01-01T02:45:15.379Z,85.90
2023-01-01T02:45:47.464Z,85.90
2023-01-01T02:46:51.250Z,85.90
2023-01-01T02:47:23.223Z,85.90
2023-01-01T02:47:55.040Z,86.00
2023-01-01T02:48:42.546Z,86.10
2023-01-01T02:49:14.427Z,86.10
2023-01-01T02:49:56.036Z,86.20
2023-01-01T02:50:29.621Z,86.20
2023-01-01T02:51:09.397Z,86.20
2023-01-01T02:51:55.861Z,86.40
2023-01-01T02:52:51.936Z,86.30
2023-01-01T02:53:30.362Z,86.30
2023-01-01T02:54:08.848Z,86.20
2023-01-01T02:54:47.440Z,86.30
2023-01-01T02:55:32.295Z,86.40
2023-01-01T02:56:14.615Z,86.20
2023-01-01T02:56:51.678Z,86.20
2023-01-01T02:57:32.259Z,86.30
2023-01-01T02:58:30.356Z,86.40
2023-01-01T02:59:33.979Z,86.50
2023-01-01T03:00:24.222Z,86.60
2023-01-01T03:01:03.790Z,86.80
2023-01-01T03:01:45.554Z,87.00
2023-01-01T03:02:30.862Z,87.20
2023-01-01T03:03:17.863Z,87.30
2023-01-01T03:03:57.560Z,87.30
2023-01-01T03:04:36.279Z,87.30
2023-01-01T03:05:15.220Z,87.30
2023-01-01T03:06:14.659Z,87.30
2023-01-01T03:06:54.956Z,87.30
2023-01-01T03:07:36.019Z,87.30
2023-01-01T03:08:14.443Z,87.40
2023-01-01T03:08:51.393Z,87.50
2023-01-01T03:09:28.709Z,87.50
2023-01-01T03:10:04.912Z,87.50
2023-01-01T03:10:45.522Z,87.30
2023-01-01T03:11:22.086Z,87.10
2023-01-01T03:11:59.140Z,86.90
2023-01-01T03:12:39.694Z,86.80
2023-01-01T03:13:20.581Z,86.80
2023-01-01T03:14:02.433Z,86.80
2023-01-01T03:14:42.862Z,86.90
2023-01-01T03:15:23.047Z,87.00
2023-01-01T03:16:00.405Z,87.00
2023-01-01T03:16:37.176Z,86.90
2023-01-01T03:17:19.493Z,86.70
2023-01-01T03:17:58.351Z,86.90
2023-01-01T03:18:38.010Z,87.20
2023-01-01T03:19:16.452Z,87.40
2023-01-01T03:19:50.856Z,87.60
2023-01-01T03:20:28.814Z,87.60
2023-01-01T03:21:03.578Z,87.70
2023-01-01T03:21:35.861Z,87.70
2023-01-01T03:22:10.826Z,87.60
2023-01-01T03:23:20.077Z,87.50
2023-01-01T03:23:54.691Z,87.50
2023-01-01T03:24:30.181Z,87.40
2023-01-01T03:25:08.444Z,87.40
2023-01-01T03:25:45.726Z,87.40
2023-01-01T03:26:19.253Z,87.40
2023-01-01T03:26:56.232Z,87.50
2023-01-01T03:27:32.283Z,87.60
2023-01-01T03:28:09.394Z,87.70
2023-01-01T03:28:49.198Z,87.80
2023-01-01T03:29:23.154Z,87.80
2023-01-01T03:30:00.927Z,87.80
2023-01-01T03:30:36.142Z,87.80
2023-01-01T03:31:08.860Z,87.80
2023-01-01T03:31:43.832Z,87.70
2023-01-01T03:32:21.433Z,87.70
2023-01-01T03:33:03.740Z,87.80
2023-01-01T03:33:39.070Z,87.90
2023-01-01T03:34:15.858Z,88.20
2023-01-01T03:34:53.513Z,88.40
2023-01-01T03:35:30.162Z,88.50
2023-01-01T03:36:06.195Z,88.50
2023-01-01T03:36:43.126Z,88.60
2023-01-01T03:37:20.441Z,88.70
2023-01-01T03:37:55.677Z,88.80
2023-01-01T03:38:33.547Z,89.00
2023-01-01T03:39:11.124Z,89.20
2023-01-01T03:39:48.295Z,89.20
2023-01-01T03:40:21.700Z,89.30
2023-01-01T03:40:58.058Z,89.30
2023-01-01T03:41:37.122Z,89.40
2023-01-01T03:42:15.804Z,89.40
2023-01-01T03:42:51.642Z,89.50
2023-01-01T03:43:33.391Z,89.70
2023-01-01T03:44:10.770Z,90.00
2023-01-01T03:44:47.728Z,90.10
2023-01-01T03:45:26.410Z,90.20
2023-01-01T03:46:01.638Z,90.20
2023-01-01T03:46:36.833Z,90.30
2023-01-01T03:47:08.777Z,90.30
2023-01-01T03:47:40.613Z,90.20
2023-01-01T03:48:13.662Z,90.20
2023-01-01T03:49:03.068Z,90.30
2023-01-01T03:49:37.454Z,90.30
2023-01-01T03:50:10.103Z,90.40
2023-01-01T03:50:53.846Z,90.70
2023-01-01T03:51:34.091Z,90.50
2023-01-01T03:52:18.757Z,90.60
2023-01-01T03:52:58.611Z,90.70
2023-01-01T03:53:39.416Z,90.70
2023-01-01T03:54:18.707Z,90.80
2023-01-01T03:55:00.725Z,91.10
2023-01-01T03:55:37.020Z,90.90
2023-01-01T03:56:17.613Z,90.90
2023-01-01T03:56:59.296Z,90.90
2023-01-01T03:57:41.295Z,90.90
2023-01-01T03:58:23.574Z,91.00
2023-01-01T03:59:02.134Z,91.00
2023-01-01T03:59:40.837Z,91.10
2023-01-01T04:00:17.204Z,91.20
2023-01-01T04:00:55.332Z,91.20
2023-01-01T04:01:32.921Z,91.30
2023-01-01T04:02:09.521Z,91.40
2023-01-01T04:02:48.195Z,91.40
2023-01-01T04:03:23.607Z,91.50
2023-01-01T04:03:57.284Z,91.50
2023-01-01T04:04:29.904Z,91.60
2023-01-01T04:05:07.356Z,91.60
2023-01-01T04:05:41.581Z,91.70
2023-01-01T04:06:14.374Z,91.80
2023-01-01T04:06:46.806Z,91.80
2023-01-01T04:07:18.973Z,91.80
2023-01-01T04:07:52.982Z,91.90
2023-01-01T04:08:25.399Z,91.80
2023-01-01T04:08:59.496Z,91.80
2023-01-01T04:09:34.859Z,91.90
2023-01-01T04:10:17.255Z,91.90
2023-01-01T04:10:54.162Z,91.90
2023-01-01T04:11:48.716Z,92.00
2023-01-01T04:12:21.542Z,92.00
2023-01-01T04:12:57.161Z,92.00
2023-01-01T04:13:29.058Z,92.00
2023-01-01T04:14:00.852Z,92.00
2023-01-01T04:14:34.994Z,92.10
2023-01-01T04:15:07.671Z,92.10
2023-01-01T04:15:39.623Z,92.10
2023-01-01T04:16:13.846Z,92.20
2023-01-01T04:16:45.695Z,92.20
2023-01-01T04:17:18.537Z,92.20
2023-01-01T04:17:51.045Z,92.50
2023-01-01T04:18:23.876Z,92.30
2023-01-01T04:18:55.668Z,92.30
2023-01-01T04:19:28.120Z,92.20
2023-01-01T04:20:00.947Z,92.20
2023-01-01T04:20:32.800Z,92.20
2023-01-01T04:21:04.742Z,92.20
2023-01-01T04:21:37.514Z,92.10
2023-01-01T04:22:09.619Z,92.10
2023-01-01T04:22:41.451Z,92.10
2023-01-01T04:23:14.233Z,92.10
2023-01-01T04:23:46.063Z,92.20
2023-01-01T04:24:17.987Z,92.10
2023-01-01T04:24:50.802Z,92.20
2023-01-01T04:25:22.684Z,92.20
2023-01-01T04:25:54.479Z,92.20
2023-01-01T04:26:27.291Z,92.20
2023-01-01T04:26:59.130Z,92.20
2023-01-01T04:27:30.955Z,92.30
2023-01-01T04:28:04.212Z,92.30
2023-01-01T04:28:35.995Z,92.30
2023-01-01T04:29:07.973Z,92.30
2023-01-01T04:29:41.748Z,92.30
2023-01-01T04:30:14.817Z,92.30
2023-01-01T04:30:46.639Z,92.30
2023-01-01T04:31:20.737Z,92.40
2023-01-01T04:31:52.636Z,92.40
2023-01-01T04:32:25.741Z,92.40
2023-01-01T04:32:57.585Z,92.40
2023-01-01T04:33:29.540Z,92.30
2023-01-01T04:34:03.018Z,92.40
2023-01-01T04:34:34.874Z,92.40
2023-01-01T04:35:08.820Z,92.30
2023-01-01T04:35:40.714Z,92.30
2023-01-01T04:36:12.595Z,92.10
2023-01-01T04:36:45.541Z,92.10
2023-01-01T04:37:18.424Z,92.20
2023-01-01T04:37:50.216Z,92.10
2023-01-01T04:38:22.010Z,92.00
2023-01-01T04:38:53.896Z,92.10
2023-01-01T04:39:26.688Z,92.00
2023-01-01T04:39:58.488Z,92.00
2023-01-01T04:40:30.413Z,91.90
2023-01-01T04:41:04.236Z,91.90
2023-01-01T04:41:36.095Z,91.80
2023-01-01T04:42:07.923Z,91.80
2023-01-01T04:42:40.888Z,91.80
2023-01-01T04:43:12.723Z,91.80
2023-01-01T04:43:47.154Z,91.80
2023-01-01T04:44:20.180Z,91.80
2023-01-01T04:44:52.000Z,91.80
2023-01-01T04:45:23.838Z,91.80
2023-01-01T04:45:57.653Z,91.90
2023-01-01T04:46:30.832Z,91.90
2023-01-01T04:47:03.677Z,91.90
2023-01-01T04:47:35.541Z,91.80
2023-01-01T04:48:07.526Z,91.70
2023-01-01T04:48:40.317Z,91.70
2023-01-01T04:49:12.181Z,91.70
2023-01-01T04:49:44.987Z,91.60
2023-01-01T04:50:16.869Z,91.90
2023-01-01T04:50:55.099Z,91.60
2023-01-01T04:51:26.889Z,91.60
2023-01-01T04:51:59.744Z,91.60
2023-01-01T04:52:31.577Z,91.60
2023-01-01T04:53:03.369Z,91.60
2023-01-01T04:53:36.007Z,91.60
2023-01-01T04:54:09.124Z,91.50
2023-01-01T04:54:40.959Z,91.50
2023-01-01T04:55:12.806Z,91.50
2023-01-01T04:55:45.574Z,91.50
2023-01-01T04:56:19.171Z,91.50
2023-01-01T04:56:51.934Z,91.50
2023-01-01T04:57:23.817Z,91.50
2023-01-01T04:57:56.590Z,91.40
2023-01-01T04:58:28.938Z,91.50
2023-01-01T04:59:00.793Z,91.40
2023-01-01T04:59:33.571Z,91.40
2023-01-01T05:00:06.583Z,91.40
2023-01-01T05:00:38.469Z,91.40
2023-01-01T05:01:16.170Z,91.40
2023-01-01T05:01:50.639Z,91.50
2023-01-01T05:02:22.873Z,91.50
2023-01-01T05:02:54.799Z,91.60
2023-01-01T05:03:28.015Z,91.60
2023-01-01T05:04:00.243Z,91.70
2023-01-01T05:04:32.088Z,91.80
2023-01-01T05:05:05.396Z,91.80
2023-01-01T05:05:37.203Z,91.80
2023-01-01T05:06:10.790Z,91.80
2023-01-01T05:06:43.738Z,91.90
2023-01-01T05:07:15.565Z,91.80
2023-01-01T05:07:47.399Z,92.20
2023-01-01T05:08:20.169Z,91.90
2023-01-01T05:08:54.620Z,91.90
2023-01-01T05:09:27.402Z,91.90
2023-01-01T05:09:59.192Z,91.80
2023-01-01T05:10:31.049Z,91.80
2023-01-01T05:11:04.172Z,91.80
2023-01-01T05:11:37.360Z,91.80
2023-01-01T05:12:09.196Z,91.80
2023-01-01T05:12:41.262Z,91.80
2023-01-01T05:13:14.072Z,91.90
2023-01-01T05:13:48.556Z,91.90
2023-01-01T05:14:21.331Z,91.90
2023-01-01T05:14:53.115Z,91.90
2023-01-01T05:15:24.997Z,91.90
2023-01-01T05:15:57.195Z,91.90
2023-01-01T05:16:31.811Z,92.00
2023-01-01T05:17:04.999Z,92.10
2023-01-01T05:17:36.866Z,92.10
2023-01-01T05:18:09.613Z,92.10
2023-01-01T05:18:42.316Z,92.20
2023-01-01T05:19:14.093Z,92.20
2023-01-01T05:19:46.919Z,92.20
2023-01-01T05:20:18.762Z,92.20
2023-01-01T05:20:50.609Z,92.30
2023-01-01T05:21:26.765Z,92.60
2023-01-01T05:21:58.635Z,92.30
2023-01-01T05:22:30.472Z,92.30
2023-01-01T05:23:03.224Z,92.30
2023-01-01T05:23:35.372Z,92.40
2023-01-01T05:24:09.349Z,92.40
2023-01-01T05:24:42.098Z,92.40
2023-01-01T05:25:13.949Z,92.30
2023-01-01T05:25:45.735Z,92.30
2023-01-01T05:26:19.929Z,92.30
2023-01-01T05:26:53.040Z,92.30
2023-01-01T05:27:24.833Z,92.20
2023-01-01T05:27:57.628Z,92.20
2023-01-01T05:28:29.598Z,92.20
2023-01-01T05:29:01.969Z,92.10
2023-01-01T05:29:34.750Z,92.10
2023-01-01T05:30:07.814Z,92.10
2023-01-01T05:30:40.427Z,92.10
2023-01-01T05:31:15.323Z,92.10
2023-01-01T05:31:47.271Z,92.10
2023-01-01T05:32:20.496Z,92.30
2023-01-01T05:32:53.297Z,91.90
2023-01-01T05:33:25.123Z,91.90
2023-01-01T05:35:01.043Z,92.00
2023-01-01T05:35:32.873Z,92.10
2023-01-01T05:36:06.366Z,92.10
2023-01-01T05:36:39.565Z,92.40
2023-01-01T05:37:11.431Z,92.10
2023-01-01T05:37:43.253Z,92.10
2023-01-01T05:38:15.031Z,92.10
2023-01-01T05:38:48.775Z,92.10
2023-01-01T05:39:20.597Z,92.10
2023-01-01T05:39:52.400Z,92.10
2023-01-01T05:40:25.247Z,92.10
2023-01-01T05:40:57.288Z,92.10
2023-01-01T05:41:31.047Z,92.00
2023-01-01T05:42:04.128Z,91.90
2023-01-01T05:42:36.026Z,91.80
2023-01-01T05:43:08.046Z,91.80
2023-01-01T05:43:40.827Z,91.80
2023-01-01T05:44:12.680Z,91.70
2023-01-01T05:44:45.506Z,91.70
2023-01-01T05:45:17.314Z,91.70
2023-01-01T05:45:49.186Z,91.80
2023-01-01T05:46:23.702Z,91.80
2023-01-01T05:46:55.480Z,91.80
2023-01-01T05:47:30.010Z,91.80
2023-01-01T05:48:04.123Z,91.70
2023-01-01T05:48:36.455Z,91.70
2023-01-01T05:49:11.099Z,91.70
2023-01-01T05:49:43.841Z,91.60
2023-01-01T05:50:15.769Z,91.60
2023-01-01T05:50:47.546Z,91.70
2023-01-01T05:51:22.789Z,91.70
2023-01-01T05:51:54.706Z,91.70
2023-01-01T05:52:27.195Z,91.70
2023-01-01T05:53:00.006Z,91.70
2023-01-01T05:53:32.186Z,91.60
2023-01-01T05:54:04.433Z,91.60
2023-01-01T05:54:37.270Z,91.60
2023-01-01T05:55:09.366Z,91.60
2023-01-01T05:55:41.163Z,91.70
2023-01-01T05:56:15.308Z,91.70
2023-01-01T05:56:47.095Z,91.70
2023-01-01T05:57:18.903Z,91.70
2023-01-01T05:57:51.682Z,91.70
2023-01-01T05:58:23.607Z,91.90
2023-01-01T05:58:55.836Z,91.70
2023-01-01T05:59:28.578Z,91.60
2023-01-01T06:00:00.431Z,91.60
2023-01-01T06:00:33.244Z,91.60
2023-01-01T06:01:10.825Z,91.40
2023-01-01T06:01:45.866Z,91.30
2023-01-01T06:02:19.027Z,91.30
2023-01-01T06:02:52.336Z,91.30
2023-01-01T06:03:24.257Z,91.30
2023-01-01T06:03:58.129Z,91.30
2023-01-01T06:04:30.021Z,91.30
2023-01-01T06:05:01.865Z,91.30
2023-01-01T06:05:36.364Z,91.30
2023-01-01T06:06:10.316Z,91.30
2023-01-01T06:06:42.423Z,91.20
2023-01-01T06:07:15.349Z,91.10
2023-01-01T06:07:48.742Z,91.10
2023-01-01T06:08:20.737Z,91.10
2023-01-01T06:08:55.105Z,91.10
2023-01-01T06:09:28.090Z,90.90
2023-01-01T06:09:59.919Z,90.90
2023-01-01T06:10:32.741Z,91.00
2023-01-01T06:11:05.990Z,91.00
2023-01-01T06:11:37.852Z,90.90
2023-01-01T06:12:10.563Z,90.90
2023-01-01T06:12:42.382Z,90.80
2023-01-01T06:13:14.207Z,90.70
2023-01-01T06:13:47.300Z,90.70
2023-01-01T06:14:19.087Z,90.70
2023-01-01T06:14:50.897Z,90.70
2023-01-01T06:15:23.627Z,90.60
2023-01-01T06:15:56.008Z,90.50
2023-01-01T06:16:29.429Z,90.40
2023-01-01T06:17:02.334Z,90.40
2023-01-01T06:17:34.244Z,90.30
2023-01-01T06:18:07.439Z,90.30
2023-01-01T06:18:40.657Z,90.20
2023-01-01T06:19:12.449Z,90.10
2023-01-01T06:19:44.272Z,90.00
2023-01-01T06:20:17.349Z,89.90
2023-01-01T06:20:49.149Z,89.70
2023-01-01T06:21:23.738Z,89.70
2023-01-01T06:21:56.524Z,89.50
2023-01-01T06:22:28.312Z,90.00
2023-01-01T06:23:00.088Z,89.20
2023-01-01T06:23:32.886Z,89.20
2023-01-01T06:24:05.608Z,88.90
2023-01-01T06:24:39.247Z,88.70
2023-01-01T06:25:12.854Z,88.40
2023-01-01T06:25:44.829Z,88.30
2023-01-01T06:26:18.470Z,88.10
2023-01-01T06:26:51.267Z,87.90
2023-01-01T06:27:23.112Z,87.70
2023-01-01T06:27:54.991Z,87.60
2023-01-01T06:28:26.813Z,87.60
2023-01-01T06:29:00.787Z,87.30
2023-01-01T06:29:32.656Z,87.30
2023-01-01T06:30:05.830Z,87.10
2023-01-01T06:30:38.830Z,86.90
2023-01-01T06:31:13.827Z,86.60
2023-01-01T06:31:45.748Z,86.30
2023-01-01T06:32:18.521Z,86.20
2023-01-01T06:32:50.301Z,86.20
2023-01-01T06:33:23.420Z,86.90
2023-01-01T06:33:56.511Z,86.00
2023-01-01T06:34:28.379Z,85.80
2023-01-01T06:35:00.188Z,85.60
2023-01-01T06:35:33.001Z,85.70
2023-01-01T06:36:06.819Z,85.40
2023-01-01T06:36:39.720Z,85.30
2023-01-01T06:37:11.581Z,85.20
2023-01-01T06:37:43.466Z,85.20
2023-01-01T06:38:16.241Z,85.20
2023-01-01T06:38:51.115Z,85.10
2023-01-01T06:39:23.888Z,85.00
2023-01-01T06:39:55.717Z,84.70
2023-01-01T06:40:27.563Z,84.60
2023-01-01T06:41:01.632Z,84.40
2023-01-01T06:41:33.474Z,84.30
2023-01-01T06:42:05.426Z,84.20
2023-01-01T06:42:38.168Z,84.10
2023-01-01T06:43:09.968Z,84.10
2023-01-01T06:43:42.419Z,83.90
2023-01-01T06:44:15.240Z,83.90
2023-01-01T06:44:47.076Z,83.90
2023-01-01T06:45:18.875Z,83.80
2023-01-01T06:46:01.325Z,83.80
2023-01-01T06:46:34.714Z,83.70
2023-01-01T06:47:07.662Z,83.60
2023-01-01T06:47:39.649Z,83.60
2023-01-01T06:48:11.470Z,83.50
2023-01-01T06:48:46.585Z,83.60
2023-01-01T06:49:18.387Z,83.60
2023-01-01T06:49:51.164Z,83.60
2023-01-01T06:50:22.954Z,83.50
2023-01-01T06:50:54.769Z,83.40
2023-01-01T06:51:29.782Z,83.40
2023-01-01T06:52:01.648Z,83.50
2023-01-01T06:52:34.481Z,83.50
2023-01-01T06:53:06.280Z,83.60
2023-01-01T06:53:38.434Z,83.50
2023-01-01T06:54:11.965Z,83.60
2023-01-01T06:54:43.728Z,83.60
2023-01-01T06:55:15.624Z,83.50
2023-01-01T06:55:53.406Z,83.50
2023-01-01T06:56:31.200Z,83.60
2023-01-01T06:57:03.133Z,83.80
2023-01-01T06:57:34.973Z,83.90
2023-01-01T06:58:09.782Z,83.80
2023-01-01T06:58:41.764Z,83.70
2023-01-01T06:59:13.549Z,83.80
2023-01-01T06:59:46.376Z,83.80
2023-01-01T07:00:18.348Z,83.90
2023-01-01T07:00:50.170Z,83.80
2023-01-01T07:01:25.196Z,83.80
2023-01-01T07:01:57.238Z,83.80
2023-01-01T07:02:30.253Z,83.80
2023-01-01T07:03:02.431Z,83.80
2023-01-01T07:03:34.748Z,83.80
2023-01-01T07:04:11.959Z,83.90
2023-01-01T07:04:43.742Z,84.00
2023-01-01T07:05:15.618Z,84.00
2023-01-01T07:05:48.362Z,83.90
2023-01-01T07:06:20.779Z,84.10
2023-01-01T07:06:53.545Z,84.10
2023-01-01T07:07:25.540Z,84.20
2023-01-01T07:07:58.118Z,84.10
2023-01-01T07:08:29.986Z,83.90
2023-01-01T07:09:03.137Z,83.90
2023-01-01T07:09:34.946Z,84.00
2023-01-01T07:10:08.836Z,84.10
2023-01-01T07:10:40.626Z,84.20
2023-01-01T07:11:12.464Z,84.10
2023-01-01T07:11:45.234Z,84.20
2023-01-01T07:12:17.050Z,84.20
2023-01-01T07:12:48.873Z,84.20
2023-01-01T07:13:21.648Z,84.20
2023-01-01T07:13:53.563Z,84.40
2023-01-01T07:14:26.389Z,84.40
2023-01-01T07:14:58.192Z,84.70
2023-01-01T07:15:31.464Z,84.90
2023-01-01T07:16:10.217Z,85.00
2023-01-01T07:16:44.387Z,85.20
2023-01-01T07:17:16.254Z,85.40
2023-01-01T07:17:48.989Z,85.60
2023-01-01T07:18:21.862Z,85.70
2023-01-01T07:18:55.000Z,85.90
2023-01-01T07:19:28.170Z,86.10
2023-01-01T07:20:00.997Z,86.20
2023-01-01T07:20:32.821Z,86.40
2023-01-01T07:21:05.751Z,86.60
2023-01-01T07:21:43.297Z,86.70
2023-01-01T07:22:15.129Z,87.00
2023-01-01T07:22:47.008Z,87.20
2023-01-01T07:23:19.764Z,87.40
2023-01-01T07:23:51.546Z,87.40
2023-01-01T07:24:24.294Z,87.30
2023-01-01T07:24:56.076Z,86.90
2023-01-01T07:25:28.074Z,86.50
2023-01-01T07:26:00.921Z,86.50